createdAt,value
2019-02-09T00:01:12.342Z,3.97
2019-02-09T00:03:41.558Z,3.33
2019-02-09T00:06:10.898Z,3.23
2019-02-09T00:08:40.052Z,3.70
2019-02-09T00:11:09.334Z,3.33
2019-02-09T00:13:38.550Z,3.77
2019-02-09T00:16:07.802Z,3.67
2019-02-09T00:18:36.950Z,3.40
2019-02-09T00:21:06.542Z,3.50
2019-02-09T00:23:35.814Z,3.50
2019-02-09T00:26:05.123Z,3.50
2019-02-09T00:28:34.271Z,3.50
2019-02-09T00:31:03.525Z,3.60
2019-02-09T00:33:32.698Z,3.20
2019-02-09T00:36:01.941Z,3.47
2019-02-09T00:38:31.170Z,3.13
2019-02-09T00:41:00.417Z,3.47
2019-02-09T00:43:29.550Z,3.60
2019-02-09T00:45:58.803Z,2.93
2019-02-09T00:48:28.018Z,3.40
2019-02-09T00:50:57.275Z,3.00
2019-02-09T00:53:26.510Z,3.30
2019-02-09T00:55:55.847Z,4.10
2019-02-09T00:58:25.094Z,3.07
2019-02-09T01:00:54.343Z,3.40
2019-02-09T01:03:23.605Z,3.20
2019-02-09T01:05:52.758Z,3.00
2019-02-09T01:08:22.056Z,3.43
2019-02-09T01:10:51.278Z,3.20
2019-02-09T01:13:20.530Z,3.03
2019-02-09T01:15:49.756Z,3.10
2019-02-09T01:18:19.035Z,3.57
2019-02-09T01:20:48.223Z,3.23
2019-02-09T01:23:17.599Z,3.47
2019-02-09T01:25:47.878Z,3.17
2019-02-09T01:28:17.194Z,3.00
2019-02-09T01:30:46.451Z,3.27
2019-02-09T01:33:15.618Z,3.10
2019-02-09T01:35:44.838Z,3.43
2019-02-09T01:38:14.109Z,3.10
2019-02-09T01:40:43.246Z,3.40
2019-02-09T01:43:12.548Z,3.50
2019-02-09T01:45:41.698Z,4.27
2019-02-09T01:48:10.955Z,3.50
2019-02-09T01:50:40.165Z,3.90
2019-02-09T01:53:09.409Z,3.70
2019-02-09T01:55:38.563Z,3.40
2019-02-09T01:58:07.826Z,3.40
2019-02-09T02:00:37.838Z,3.30
2019-02-09T02:03:07.186Z,3.43
2019-02-09T02:05:36.597Z,4.20
2019-02-09T02:08:06.172Z,3.67
2019-02-09T02:10:37.188Z,3.33
2019-02-09T02:13:07.753Z,3.73
2019-02-09T02:15:37.362Z,4.40
2019-02-09T02:18:08.482Z,3.70
2019-02-09T02:20:37.627Z,4.70
2019-02-09T02:23:06.903Z,4.07
2019-02-09T02:25:36.128Z,4.27
2019-02-09T02:28:05.411Z,3.90
2019-02-09T02:30:36.423Z,3.83
2019-02-09T02:33:06.946Z,4.00
2019-02-09T02:35:36.570Z,4.17
2019-02-09T02:38:06.164Z,3.87
2019-02-09T02:40:35.716Z,3.80
2019-02-09T02:43:05.118Z,4.40
2019-02-09T02:45:34.439Z,4.00
2019-02-09T02:48:03.730Z,3.93
2019-02-09T02:50:32.910Z,3.90
2019-02-09T02:53:02.060Z,4.20
2019-02-09T02:55:31.307Z,4.27
2019-02-09T02:58:00.626Z,4.30
2019-02-09T03:00:32.986Z,4.67
2019-02-09T03:03:02.042Z,5.33
2019-02-09T03:05:31.874Z,4.67
2019-02-09T03:08:01.358Z,4.73
2019-02-09T03:10:30.783Z,4.30
2019-02-09T03:12:59.949Z,5.93
2019-02-09T03:15:30.563Z,4.80
2019-02-09T03:18:00.097Z,4.57
2019-02-09T03:20:29.554Z,5.40
2019-02-09T03:22:58.858Z,4.50
2019-02-09T03:25:30.030Z,4.67
2019-02-09T03:27:59.254Z,4.67
2019-02-09T03:30:28.621Z,4.70
2019-02-09T03:32:57.966Z,5.47
2019-02-09T03:35:27.464Z,4.77
2019-02-09T03:37:56.725Z,6.30
2019-02-09T03:40:26.230Z,4.67
2019-02-09T03:42:55.619Z,5.43
2019-02-09T03:45:26.960Z,5.90
2019-02-09T03:47:56.131Z,5.17
2019-02-09T03:50:27.000Z,5.63
2019-02-09T03:52:56.499Z,5.97
2019-02-09T03:55:26.077Z,5.30
2019-02-09T03:57:55.306Z,6.23
2019-02-09T04:00:26.336Z,5.57
2019-02-09T04:02:55.896Z,7.10
2019-02-09T04:05:25.298Z,6.43
2019-02-09T04:07:54.643Z,6.20
2019-02-09T04:10:24.774Z,6.47
2019-02-09T04:12:54.161Z,6.43
2019-02-09T04:15:24.686Z,6.10
2019-02-09T04:17:54.348Z,7.47
2019-02-09T04:20:23.989Z,6.60
2019-02-09T04:22:53.435Z,7.40
2019-02-09T04:25:23.126Z,6.40
2019-02-09T04:27:52.431Z,7.20
2019-02-09T04:30:24.048Z,7.80
2019-02-09T04:32:53.820Z,9.30
2019-02-09T04:35:22.962Z,8.63
2019-02-09T04:37:52.438Z,8.43
2019-02-09T04:40:23.698Z,10.07
2019-02-09T04:42:52.879Z,9.13
2019-02-09T04:45:22.815Z,8.50
2019-02-09T04:47:51.996Z,10.10
2019-02-09T04:50:21.330Z,7.73
2019-02-09T04:52:50.647Z,7.80
2019-02-09T04:55:21.350Z,8.40
2019-02-09T04:57:50.802Z,6.87
2019-02-09T05:00:22.196Z,7.47
2019-02-09T05:02:51.444Z,9.60
2019-02-09T05:05:20.678Z,9.57
2019-02-09T05:07:50.316Z,10.80
2019-02-09T05:10:20.117Z,8.77
2019-02-09T05:12:49.363Z,10.90
2019-02-09T05:15:18.989Z,8.93
2019-02-09T05:17:48.326Z,7.77
2019-02-09T05:20:19.482Z,8.67
2019-02-09T05:22:48.966Z,8.17
2019-02-09T05:25:18.623Z,6.47
2019-02-09T05:27:47.903Z,5.87
2019-02-09T05:30:22.386Z,6.03
2019-02-09T05:32:51.659Z,5.47
2019-02-09T05:35:20.885Z,5.27
2019-02-09T05:37:50.151Z,3.83
2019-02-09T05:40:20.740Z,4.50
2019-02-09T05:42:50.000Z,3.40
2019-02-09T05:45:21.352Z,4.20
2019-02-09T05:47:50.602Z,2.80
2019-02-09T05:50:20.263Z,2.77
2019-02-09T05:52:49.512Z,2.90
2019-02-09T05:55:19.414Z,2.93
2019-02-09T05:57:48.748Z,3.00
2019-02-09T06:00:28.421Z,3.13
2019-02-09T06:02:57.825Z,3.77
2019-02-09T06:05:27.401Z,3.70
2019-02-09T06:07:56.622Z,3.80
2019-02-09T06:10:26.006Z,3.90
2019-02-09T06:12:55.192Z,3.53
2019-02-09T06:15:25.430Z,2.93
2019-02-09T06:17:54.913Z,3.33
2019-02-09T06:20:25.589Z,3.00
2019-02-09T06:22:54.752Z,2.87
2019-02-09T06:25:24.121Z,2.60
2019-02-09T06:27:53.671Z,3.30
2019-02-09T06:30:24.916Z,2.80
2019-02-09T06:32:54.365Z,3.37
2019-02-09T06:35:23.863Z,2.60
2019-02-09T06:37:53.154Z,3.47
2019-02-09T06:40:22.697Z,2.60
2019-02-09T06:42:51.890Z,2.67
2019-02-09T06:45:22.177Z,2.50
2019-02-09T06:47:51.678Z,2.30
2019-02-09T06:50:23.740Z,2.07
2019-02-09T06:52:52.942Z,2.73
2019-02-09T06:55:22.118Z,2.57
2019-02-09T06:57:51.262Z,2.53
2019-02-09T07:00:20.854Z,2.60
2019-02-09T07:02:50.187Z,1.90
2019-02-09T07:05:19.760Z,2.33
2019-02-09T07:07:49.350Z,2.20
2019-02-09T07:10:22.881Z,2.37
2019-02-09T07:12:52.687Z,2.73
2019-02-09T07:15:24.623Z,2.00
2019-02-09T07:17:53.798Z,2.27
2019-02-09T07:20:23.023Z,2.20
2019-02-09T07:22:52.200Z,2.17
2019-02-09T07:25:21.762Z,2.20
2019-02-09T07:27:50.939Z,2.20
2019-02-09T07:30:22.656Z,2.00
2019-02-09T07:32:52.750Z,2.40
2019-02-09T07:35:22.203Z,1.90
2019-02-09T07:37:51.584Z,1.90
2019-02-09T07:40:22.210Z,1.70
2019-02-09T07:42:51.388Z,1.87
2019-02-09T07:45:22.374Z,2.20
2019-02-09T07:47:51.650Z,1.97
2019-02-09T07:50:21.850Z,2.30
2019-02-09T07:52:51.014Z,1.67
2019-02-09T07:55:20.466Z,2.23
2019-02-09T07:57:49.966Z,1.60
2019-02-09T08:00:21.550Z,1.60
2019-02-09T08:02:50.815Z,1.80
2019-02-09T08:05:21.186Z,1.70
2019-02-09T08:07:50.788Z,2.20
2019-02-09T08:10:22.492Z,1.63
2019-02-09T08:12:51.920Z,1.70
2019-02-09T08:15:23.032Z,2.10
2019-02-09T08:17:53.503Z,1.80
2019-02-09T08:20:24.787Z,2.30
2019-02-09T08:22:55.283Z,1.70
2019-02-09T08:25:26.851Z,1.63
2019-02-09T08:27:57.297Z,2.00
2019-02-09T08:30:32.263Z,1.47
2019-02-09T08:33:01.549Z,1.70
2019-02-09T08:35:30.762Z,1.60
2019-02-09T08:37:59.994Z,1.50
2019-02-09T08:40:29.178Z,1.73
2019-02-09T08:42:58.667Z,1.97
2019-02-09T08:45:28.223Z,1.70
2019-02-09T08:47:57.519Z,1.50
2019-02-09T08:50:32.527Z,1.57
2019-02-09T08:53:01.846Z,2.10
2019-02-09T08:55:31.123Z,1.70
2019-02-09T08:58:00.346Z,2.20
2019-02-09T09:00:31.339Z,1.80
2019-02-09T09:03:00.626Z,1.60
2019-02-09T09:05:29.946Z,1.77
2019-02-09T09:07:59.308Z,1.80
2019-02-09T09:10:28.854Z,1.70
2019-02-09T09:12:58.520Z,2.20
2019-02-09T09:15:30.714Z,1.80
2019-02-09T09:17:59.959Z,2.00
2019-02-09T09:20:31.675Z,1.60
2019-02-09T09:23:00.823Z,1.60
2019-02-09T09:25:30.275Z,2.30
2019-02-09T09:28:00.998Z,3.30
2019-02-09T09:30:30.406Z,2.30
2019-02-09T09:32:59.566Z,2.00
2019-02-09T09:35:28.822Z,1.67
2019-02-09T09:37:58.075Z,2.13
2019-02-09T09:40:29.539Z,1.90
2019-02-09T09:42:58.776Z,2.10
2019-02-09T09:45:29.910Z,2.43
2019-02-09T09:47:59.596Z,2.17
2019-02-09T09:50:29.039Z,2.03
2019-02-09T09:52:58.207Z,2.27
2019-02-09T09:55:27.466Z,1.67
2019-02-09T09:57:56.614Z,1.97
2019-02-09T10:00:26.396Z,2.20
2019-02-09T10:02:55.814Z,2.10
2019-02-09T10:05:25.439Z,1.93
2019-02-09T10:07:54.715Z,2.00
2019-02-09T10:10:24.215Z,2.43
2019-02-09T10:12:53.497Z,2.10
2019-02-09T10:15:24.137Z,2.87
2019-02-09T10:17:53.465Z,2.20
2019-02-09T10:20:24.187Z,2.20
2019-02-09T10:22:53.525Z,2.53
2019-02-09T10:25:23.252Z,2.50
2019-02-09T10:27:53.561Z,2.80
2019-02-09T10:30:24.858Z,2.77
2019-02-09T10:32:54.278Z,2.37
2019-02-09T10:35:24.469Z,2.17
2019-02-09T10:37:54.255Z,2.40
2019-02-09T10:40:25.726Z,2.43
2019-02-09T10:42:55.318Z,2.57
2019-02-09T10:45:26.806Z,2.03
2019-02-09T10:47:56.272Z,2.20
2019-02-09T10:50:36.446Z,2.20
2019-02-09T10:53:06.134Z,2.50
2019-02-09T10:55:35.410Z,2.17
2019-02-09T10:58:05.506Z,2.70
2019-02-09T11:00:40.217Z,2.40
2019-02-09T11:03:09.542Z,2.23
2019-02-09T11:05:38.863Z,2.23
2019-02-09T11:08:08.602Z,2.50
2019-02-09T11:10:37.891Z,2.43
2019-02-09T11:13:07.510Z,2.90
2019-02-09T11:15:37.053Z,2.40
2019-02-09T11:18:06.851Z,2.30
2019-02-09T11:20:36.140Z,2.27
2019-02-09T11:23:06.037Z,2.50
2019-02-09T11:25:35.267Z,2.80
2019-02-09T11:28:04.831Z,2.00
2019-02-09T11:30:34.071Z,2.60
2019-02-09T11:33:03.323Z,2.60
2019-02-09T11:35:32.567Z,2.47
2019-02-09T11:38:01.734Z,3.13
2019-02-09T11:40:30.981Z,2.60
2019-02-09T11:43:00.766Z,2.73
2019-02-09T11:45:30.739Z,2.37
2019-02-09T11:48:00.044Z,2.40
2019-02-09T11:50:29.396Z,3.23
2019-02-09T11:52:58.707Z,2.77
2019-02-09T11:55:28.154Z,2.53
2019-02-09T11:57:57.943Z,3.07
2019-02-09T12:00:32.385Z,3.17
2019-02-09T12:03:05.561Z,2.23
2019-02-09T12:05:32.666Z,2.63
2019-02-09T12:08:01.923Z,2.63
2019-02-09T12:10:32.235Z,2.87
2019-02-09T12:13:01.546Z,2.73
2019-02-09T12:15:34.390Z,2.40
2019-02-09T12:18:03.860Z,2.67
2019-02-09T12:20:33.081Z,2.53
2019-02-09T12:23:02.339Z,3.20
2019-02-09T12:25:33.231Z,2.70
2019-02-09T12:28:02.410Z,3.40
2019-02-09T12:30:34.303Z,3.10
2019-02-09T12:33:03.738Z,3.03
2019-02-09T12:35:32.970Z,2.30
2019-02-09T12:38:02.184Z,2.90
2019-02-09T12:40:32.942Z,2.57
2019-02-09T12:43:02.178Z,3.80
2019-02-09T12:45:32.851Z,3.27
2019-02-09T12:48:02.240Z,2.83
2019-02-09T12:50:31.812Z,3.20
2019-02-09T12:53:01.094Z,3.10
2019-02-09T12:55:30.262Z,3.00
2019-02-09T12:57:59.525Z,3.57
2019-02-09T13:00:33.486Z,3.00
2019-02-09T13:03:08.637Z,3.17
2019-02-09T13:05:37.902Z,2.97
2019-02-09T13:08:07.259Z,2.70
2019-02-09T13:10:36.487Z,3.00
2019-02-09T13:13:05.978Z,2.90
2019-02-09T13:15:35.344Z,3.03
2019-02-09T13:18:05.790Z,2.67
2019-02-09T13:20:35.133Z,3.50
2019-02-09T13:23:05.673Z,3.40
2019-02-09T13:25:34.955Z,3.10
2019-02-09T13:28:04.329Z,3.03
2019-02-09T13:30:33.657Z,2.93
2019-02-09T13:33:02.998Z,2.80
2019-02-09T13:35:32.324Z,3.10
2019-02-09T13:38:01.567Z,3.20
2019-02-09T13:40:31.095Z,3.13
2019-02-09T13:43:00.423Z,2.70
2019-02-09T13:45:34.685Z,2.70
2019-02-09T13:48:03.913Z,3.37
2019-02-09T13:50:33.918Z,3.00
2019-02-09T13:53:03.218Z,3.20
2019-02-09T13:55:32.422Z,3.03
2019-02-09T13:58:01.689Z,3.13
2019-02-09T14:00:31.692Z,2.87
2019-02-09T14:03:00.866Z,2.80
2019-02-09T14:05:30.117Z,2.63
2019-02-09T14:07:59.540Z,2.70
2019-02-09T14:10:29.029Z,2.80
2019-02-09T14:12:58.594Z,3.20
2019-02-09T14:15:29.874Z,2.50
2019-02-09T14:18:00.773Z,2.60
2019-02-09T14:20:30.225Z,2.50
2019-02-09T14:22:59.444Z,3.23
2019-02-09T14:25:28.699Z,2.90
2019-02-09T14:27:59.799Z,2.53
2019-02-09T14:30:30.338Z,2.70
2019-02-09T14:32:59.888Z,2.87
2019-02-09T14:35:30.086Z,2.40
2019-02-09T14:37:59.496Z,3.33
2019-02-09T14:40:30.675Z,3.03
2019-02-09T14:43:00.346Z,2.93
2019-02-09T14:45:32.310Z,3.10
2019-02-09T14:48:01.593Z,2.80
2019-02-09T14:50:30.839Z,2.80
2019-02-09T14:53:00.060Z,3.17
2019-02-09T14:55:31.251Z,2.50
2019-02-09T14:58:00.411Z,2.80
2019-02-09T15:00:43.726Z,2.70
2019-02-09T15:03:14.176Z,3.20
2019-02-09T15:05:43.758Z,2.90
2019-02-09T15:08:12.906Z,2.80
2019-02-09T15:10:42.095Z,2.90
2019-02-09T15:13:12.351Z,3.03
2019-02-09T15:16:23.323Z,3.03
2019-02-09T15:18:52.551Z,2.77
2019-02-09T15:21:21.719Z,2.83
2019-02-09T15:23:50.946Z,3.13
2019-02-09T15:26:20.194Z,2.70
2019-02-09T15:28:49.400Z,2.53
2019-02-09T15:31:18.651Z,3.20
2019-02-09T15:33:47.883Z,2.90
2019-02-09T15:36:17.114Z,3.03
2019-02-09T15:38:46.374Z,3.33
2019-02-09T15:41:15.582Z,3.23
2019-02-09T15:43:44.810Z,2.87
2019-02-09T15:46:14.132Z,3.33
2019-02-09T15:48:43.327Z,3.83
2019-02-09T15:51:12.507Z,3.40
2019-02-09T15:53:41.751Z,3.30
2019-02-09T15:56:11.174Z,3.07
2019-02-09T15:58:40.388Z,3.23
2019-02-09T16:01:09.732Z,3.33
2019-02-09T16:03:38.875Z,2.50
2019-02-09T16:06:08.113Z,2.83
2019-02-09T16:08:37.456Z,3.00
2019-02-09T16:11:06.730Z,6.33
2019-02-09T16:13:35.910Z,3.37
2019-02-09T16:16:05.642Z,10.47
2019-02-09T16:18:34.971Z,2.60
2019-02-09T16:21:04.207Z,3.03
2019-02-09T16:23:33.454Z,3.33
2019-02-09T16:26:02.630Z,3.13
2019-02-09T16:28:31.826Z,3.20
2019-02-09T16:31:01.045Z,3.47
2019-02-09T16:33:30.223Z,3.30
2019-02-09T16:35:59.655Z,2.67
2019-02-09T16:38:28.837Z,2.97
2019-02-09T16:40:58.143Z,3.10
2019-02-09T16:43:27.402Z,2.93
2019-02-09T16:45:56.561Z,3.20
2019-02-09T16:48:25.806Z,3.30
2019-02-09T16:50:55.161Z,2.73
2019-02-09T16:53:24.447Z,2.87
2019-02-09T16:55:53.701Z,2.70
2019-02-09T16:58:22.965Z,3.13
2019-02-09T17:00:52.216Z,2.83
2019-02-09T17:03:21.465Z,3.10
2019-02-09T17:05:50.615Z,2.87
2019-02-09T17:08:20.001Z,4.50
2019-02-09T17:10:49.159Z,3.50
2019-02-09T17:13:18.422Z,3.70
2019-02-09T17:15:47.713Z,4.23
2019-02-09T17:18:16.937Z,2.90
2019-02-09T17:20:46.163Z,2.80
2019-02-09T17:23:15.409Z,4.60
2019-02-09T17:25:44.562Z,3.20
2019-02-09T17:28:13.831Z,3.43
2019-02-09T17:30:43.058Z,4.00
2019-02-09T17:33:12.314Z,3.10
2019-02-09T17:35:41.529Z,3.07
2019-02-09T17:38:10.742Z,3.80
2019-02-09T17:40:42.840Z,2.80
2019-02-09T17:43:12.323Z,4.53
2019-02-09T17:45:44.811Z,5.60
2019-02-09T17:48:14.000Z,3.10
2019-02-09T17:50:43.323Z,2.77
2019-02-09T17:53:12.571Z,3.40
2019-02-09T17:55:41.739Z,5.87
2019-02-09T17:58:10.962Z,6.20
2019-02-09T18:00:47.984Z,4.07
2019-02-09T18:03:17.200Z,3.00
2019-02-09T18:05:46.482Z,3.13
2019-02-09T18:08:15.629Z,3.40
2019-02-09T18:10:44.812Z,5.53
2019-02-09T18:13:14.029Z,3.67
2019-02-09T18:15:43.297Z,3.27
2019-02-09T18:18:12.460Z,2.73
2019-02-09T18:20:41.707Z,3.70
2019-02-09T18:23:10.970Z,3.30
2019-02-09T18:25:40.282Z,3.30
2019-02-09T18:28:09.513Z,3.27
2019-02-09T18:30:39.288Z,3.63
2019-02-09T18:33:08.571Z,3.37
2019-02-09T18:35:38.070Z,2.90
2019-02-09T18:38:07.230Z,3.43
2019-02-09T18:40:36.511Z,3.30
2019-02-09T18:43:05.790Z,3.43
2019-02-09T18:45:35.151Z,3.50
2019-02-09T18:48:04.682Z,4.03
2019-02-09T18:50:33.931Z,6.10
2019-02-09T18:53:03.410Z,3.97
2019-02-09T18:55:32.851Z,3.23
2019-02-09T18:58:02.163Z,3.00
2019-02-09T19:00:32.718Z,3.27
2019-02-09T19:03:02.003Z,3.83
2019-02-09T19:05:31.258Z,3.87
2019-02-09T19:08:00.735Z,3.77
2019-02-09T19:10:30.022Z,3.03
2019-02-09T19:12:59.257Z,3.50
2019-02-09T19:15:28.618Z,3.27
2019-02-09T19:17:58.194Z,2.90
2019-02-09T19:20:30.047Z,3.53
2019-02-09T19:22:59.439Z,9.50
2019-02-09T19:25:29.162Z,6.07
2019-02-09T19:27:58.546Z,3.80
2019-02-09T19:30:27.923Z,3.10
2019-02-09T19:32:57.179Z,2.97
2019-02-09T19:35:26.502Z,2.60
2019-02-09T19:37:55.682Z,3.10
2019-02-09T19:40:24.999Z,3.10
2019-02-09T19:42:54.253Z,2.90
2019-02-09T19:45:25.657Z,2.77
2019-02-09T19:47:54.898Z,2.77
2019-02-09T19:50:24.118Z,3.00
2019-02-09T19:52:53.371Z,3.57
2019-02-09T19:55:24.352Z,2.40
2019-02-09T19:57:53.774Z,3.30
2019-02-09T20:00:34.254Z,2.83
2019-02-09T20:03:03.695Z,2.43
2019-02-09T20:05:32.922Z,2.90
2019-02-09T20:08:02.188Z,2.27
2019-02-09T20:10:35.854Z,2.60
2019-02-09T20:13:06.758Z,2.23
2019-02-09T20:15:36.011Z,2.37
2019-02-09T20:18:05.922Z,2.90
2019-02-09T20:20:35.283Z,4.20
2019-02-09T20:23:04.849Z,2.47
2019-02-09T20:25:34.215Z,2.57
2019-02-09T20:28:03.429Z,2.80
2019-02-09T20:30:34.310Z,2.47
2019-02-09T20:33:03.659Z,2.37
2019-02-09T20:35:32.834Z,2.67
2019-02-09T20:38:02.159Z,2.77
2019-02-09T20:40:36.455Z,3.30
2019-02-09T20:43:06.647Z,2.67
2019-02-09T20:45:35.903Z,2.73
2019-02-09T20:48:06.279Z,2.53
2019-02-09T20:50:35.522Z,2.70
2019-02-09T20:53:05.482Z,3.20
2019-02-09T20:55:34.851Z,3.10
2019-02-09T20:58:05.048Z,3.27
2019-02-09T21:00:34.374Z,2.87
2019-02-09T21:03:03.598Z,3.43
2019-02-09T21:05:36.702Z,3.80
2019-02-09T21:08:03.843Z,3.37
2019-02-09T21:10:33.227Z,3.60
2019-02-09T21:13:02.400Z,4.40
2019-02-09T21:15:32.070Z,4.17
2019-02-09T21:18:02.050Z,3.57
2019-02-09T21:20:31.566Z,4.23
2019-02-09T21:23:00.787Z,3.30
2019-02-09T21:25:32.297Z,4.03
2019-02-09T21:28:01.848Z,4.20
2019-02-09T21:30:31.407Z,3.50
2019-02-09T21:33:01.183Z,3.27
2019-02-09T21:35:30.638Z,2.90
2019-02-09T21:38:00.616Z,3.10
2019-02-09T21:40:29.985Z,3.17
2019-02-09T21:42:59.588Z,3.00
2019-02-09T21:45:28.908Z,3.67
2019-02-09T21:47:58.157Z,3.50
2019-02-09T21:50:32.183Z,3.40
2019-02-09T21:53:01.726Z,3.33
2019-02-09T21:55:31.049Z,3.10
2019-02-09T21:58:00.274Z,3.03
2019-02-09T22:00:32.122Z,3.33
2019-02-09T22:03:01.504Z,4.10
2019-02-09T22:05:30.978Z,3.40
2019-02-09T22:08:00.241Z,3.30
2019-02-09T22:10:33.693Z,3.70
2019-02-09T22:13:00.495Z,3.70
2019-02-09T22:15:38.021Z,3.83
2019-02-09T22:18:00.995Z,4.03
2019-02-09T22:20:30.156Z,4.17
2019-02-09T22:22:59.479Z,3.50
2019-02-09T22:25:29.183Z,3.57
2019-02-09T22:27:58.509Z,3.47
2019-02-09T22:30:28.748Z,4.10
2019-02-09T22:32:58.464Z,3.53
2019-02-09T22:35:28.082Z,3.53
2019-02-09T22:37:57.666Z,3.50
2019-02-09T22:40:29.007Z,3.73
2019-02-09T22:42:58.264Z,3.90
2019-02-09T22:45:28.476Z,3.77
2019-02-09T22:47:57.834Z,4.53
2019-02-09T22:50:29.590Z,3.90
2019-02-09T22:52:58.971Z,3.10
2019-02-09T22:55:28.654Z,3.83
2019-02-09T22:57:58.006Z,3.60
2019-02-09T23:00:46.527Z,3.60
2019-02-09T23:03:16.166Z,3.90
2019-02-09T23:06:14.576Z,3.87
2019-02-09T23:08:43.850Z,3.83
2019-02-09T23:11:13.132Z,4.23
2019-02-09T23:13:42.294Z,3.57
2019-02-09T23:16:11.554Z,4.30
2019-02-09T23:18:40.779Z,3.60
2019-02-09T23:21:09.946Z,4.63
2019-02-09T23:23:39.092Z,4.40
2019-02-09T23:26:08.354Z,3.73
2019-02-09T23:28:37.577Z,4.63
2019-02-09T23:31:06.825Z,3.90
2019-02-09T23:33:36.775Z,4.27
2019-02-09T23:36:06.290Z,3.90
2019-02-09T23:38:35.567Z,4.17
2019-02-09T23:41:04.935Z,4.83
2019-02-09T23:43:34.379Z,3.97
2019-02-09T23:46:03.662Z,4.83
2019-02-09T23:48:33.255Z,4.80
2019-02-09T23:51:02.502Z,4.77
2019-02-09T23:53:31.742Z,4.80
2019-02-09T23:56:00.990Z,4.00
2019-02-09T23:58:30.169Z,4.70
